Time;durP1;ratioP1;P1;durP2;ratioP2;P2;SDS_P1;SDS_P2;PMS_P1;PMS_P2;Temp;Humidity;BMP_temperature;BMP_pressure;BME280_temperature;BME280_humidity;BME280_pressure;Samples;Min_cycle;Max_cycle;Signal;HPM_P1;HPM_P2
2022/01/04 00:03:50;;;;;;;20.45;6.93;;;;;;;9.06;100.00;100167.97;10081394;29;20096;-78
2022/01/04 00:08:51;;;;;;;9.88;6.57;;;;;;;9.10;100.00;100162.97;10080920;29;20394;-78
2022/01/04 00:13:53;;;;;;;19.00;6.53;;;;;;;9.03;100.00;100145.91;10097601;29;20064;-78
2022/01/04 00:18:53;;;;;;;12.98;7.63;;;;;;;9.00;100.00;100149.88;10096757;29;20033;-79
2022/01/04 00:23:53;;;;;;;17.98;7.43;;;;;;;9.03;100.00;100135.97;10097480;29;20037;-78
2022/01/04 00:28:54;;;;;;;16.15;8.10;;;;;;;9.02;100.00;100115.38;10097636;29;20041;-78
2022/01/04 00:33:54;;;;;;;13.95;7.40;;;;;;;8.99;100.00;100106.88;10097036;29;20033;-78
2022/01/04 00:38:54;;;;;;;14.55;6.70;;;;;;;9.04;100.00;100099.00;10097190;29;20073;-78
2022/01/04 00:43:55;;;;;;;24.67;7.50;;;;;;;9.01;100.00;100102.94;10097018;29;20438;-78
2022/01/04 00:49:11;;;;;;;11.20;8.40;;;;;;;8.98;100.00;100100.63;10079608;29;20125;-78
2022/01/04 00:54:13;;;;;;;16.02;8.52;;;;;;;8.94;100.00;100087.78;10096812;29;20036;-78
2022/01/04 00:59:14;;;;;;;15.80;8.02;;;;;;;8.96;100.00;100081.09;10080317;29;20136;-78
2022/01/04 01:04:14;;;;;;;12.63;9.25;;;;;;;8.96;100.00;100074.88;10096631;29;20120;-79
2022/01/04 01:09:15;;;;;;;16.48;8.32;;;;;;;8.86;100.00;100064.50;10097082;29;20510;-79
2022/01/04 01:14:15;;;;;;;11.30;8.48;;;;;;;8.93;100.00;100054.50;10079066;29;20105;-78
2022/01/04 01:19:16;;;;;;;19.73;9.27;;;;;;;8.89;100.00;100053.28;10096142;29;20045;-78
2022/01/04 01:24:16;;;;;;;18.52;10.98;;;;;;;8.92;100.00;100046.63;10095852;29;20037;-78
2022/01/04 01:29:17;;;;;;;14.68;9.23;;;;;;;8.96;100.00;100043.28;10096544;29;20045;-78
2022/01/04 01:34:17;;;;;;;10.75;8.82;;;;;;;8.93;100.00;100038.31;10102594;29;20048;-78
2022/01/04 01:39:17;;;;;;;22.88;10.27;;;;;;;8.86;100.00;100029.38;10102678;29;20045;-78
2022/01/04 01:44:18;;;;;;;20.35;8.65;;;;;;;8.84;100.00;100028.78;10101932;29;20056;-77
2022/01/04 01:49:19;;;;;;;16.58;7.20;;;;;;;8.92;100.00;100016.94;10085659;29;20053;-79
2022/01/04 01:54:19;;;;;;;12.95;8.60;;;;;;;8.83;100.00;100002.81;10102468;29;20036;-78
2022/01/04 01:59:20;;;;;;;25.30;11.57;;;;;;;8.76;100.00;99997.41;10108748;29;20037;-78
2022/01/04 02:04:20;;;;;;;22.27;8.25;;;;;;;8.78;100.00;99989.13;10108818;29;20041;-78
2022/01/04 02:09:21;;;;;;;13.00;8.65;;;;;;;8.71;100.00;99972.94;10101428;29;20101;-78
2022/01/04 02:14:21;;;;;;;15.32;10.07;;;;;;;8.75;100.00;99976.88;10084114;29;20041;-77
2022/01/04 02:19:22;;;;;;;21.60;9.43;;;;;;;8.75;100.00;99973.34;10100916;29;20052;-78
2022/01/04 02:24:22;;;;;;;17.45;9.13;;;;;;;8.74;100.00;99968.97;10100481;29;20037;-77
2022/01/04 02:29:22;;;;;;;19.70;9.27;;;;;;;8.72;100.00;99962.97;10100324;29;20489;-78
2022/01/04 02:34:23;;;;;;;23.60;8.85;;;;;;;8.69;100.00;99952.56;10083349;29;20097;-78
2022/01/04 02:39:23;;;;;;;25.75;10.80;;;;;;;8.71;100.00;99942.38;10083449;29;20054;-78
2022/01/04 02:44:24;;;;;;;16.13;9.82;;;;;;;8.73;100.00;99930.34;10081551;29;20453;-78
2022/01/04 02:49:24;;;;;;;17.02;10.13;;;;;;;8.72;100.00;99927.88;10099803;29;20113;-78
2022/01/04 02:54:24;;;;;;;15.15;11.15;;;;;;;8.67;100.00;99924.97;10083015;29;20120;-78
2022/01/04 02:59:25;;;;;;;26.20;12.48;;;;;;;8.71;100.00;99907.28;10082793;29;20040;-78
2022/01/04 03:04:25;;;;;;;20.35;11.00;;;;;;;8.71;100.00;99910.00;10099793;29;20069;-78
2022/01/04 03:09:26;;;;;;;18.95;11.30;;;;;;;8.70;100.00;99902.94;10067395;29;20067;-78
2022/01/04 03:14:26;;;;;;;26.15;12.63;;;;;;;8.65;100.00;99889.25;10098325;29;20157;-78
2022/01/04 03:19:27;;;;;;;24.52;13.48;;;;;;;8.66;100.00;99877.44;10099673;29;20045;-78
2022/01/04 03:24:27;;;;;;;27.40;14.07;;;;;;;8.63;100.00;99864.34;10098746;29;20036;-78
2022/01/04 03:29:27;;;;;;;24.17;11.10;;;;;;;8.66;100.00;99853.13;10082017;29;20116;-78
2022/01/04 03:34:28;;;;;;;17.75;13.48;;;;;;;8.67;100.00;99844.81;10081627;29;20048;-78
2022/01/04 03:39:28;;;;;;;24.50;13.88;;;;;;;8.65;100.00;99830.72;10097948;29;20100;-78
2022/01/04 03:44:29;;;;;;;12.77;9.77;;;;;;;8.64;100.00;99822.81;10080756;29;20041;-78
2022/01/04 03:49:29;;;;;;;31.67;13.18;;;;;;;8.59;100.00;99815.38;10097835;29;20068;-78
2022/01/04 03:54:30;;;;;;;19.88;12.90;;;;;;;8.55;100.00;99812.28;10097872;29;20052;-78
2022/01/04 03:59:30;;;;;;;23.73;12.95;;;;;;;8.56;100.00;99805.00;10081344;29;20101;-80
2022/01/04 04:04:30;;;;;;;27.45;12.57;;;;;;;8.54;100.00;99805.19;10081001;29;20040;-78
2022/01/04 04:09:34;;;;;;;15.27;12.25;;;;;;;8.58;100.00;99792.09;10098618;29;20452;-79
2022/01/04 04:14:35;;;;;;;16.55;11.10;;;;;;;8.54;100.00;99796.28;10099387;29;20072;-78
2022/01/04 04:19:35;;;;;;;13.68;11.90;;;;;;;8.49;100.00;99788.81;10086021;29;20068;-79
2022/01/04 04:24:35;;;;;;;12.18;10.95;;;;;;;8.50;100.00;99779.69;10068266;29;20037;-78
2022/01/04 04:29:36;;;;;;;15.32;11.05;;;;;;;8.54;100.00;99780.09;10097072;29;20401;-78
2022/01/04 04:34:36;;;;;;;20.83;11.75;;;;;;;8.49;100.00;99759.16;10098002;29;20048;-78
2022/01/04 04:39:37;;;;;;;11.88;9.35;;;;;;;8.52;100.00;99747.94;10080418;29;20044;-78
2022/01/04 04:44:37;;;;;;;19.63;9.45;;;;;;;8.51;100.00;99742.72;10096267;29;20025;-78
2022/01/04 04:49:38;;;;;;;18.25;10.43;;;;;;;8.46;100.00;99753.34;10080071;29;20068;-78
2022/01/04 04:54:38;;;;;;;14.35;10.63;;;;;;;8.36;100.00;99737.56;10096733;29;20472;-81
2022/01/04 04:59:38;;;;;;;19.10;10.50;;;;;;;8.21;100.00;99745.06;10096753;29;20096;-79
2022/01/04 05:04:39;;;;;;;12.88;10.52;;;;;;;8.17;100.00;99733.88;10097153;29;20033;-80
2022/01/04 05:09:40;;;;;;;14.38;10.02;;;;;;;8.18;100.00;99732.00;10087754;29;20079;-80
2022/01/04 05:14:45;;;;;;;21.42;11.13;;;;;;;8.16;100.00;99724.13;10086747;29;20033;-80
2022/01/04 05:19:46;;;;;;;20.95;10.30;;;;;;;8.04;100.00;99718.56;10103680;29;20040;-80
2022/01/04 05:24:46;;;;;;;25.75;12.80;;;;;;;8.07;100.00;99736.16;10086677;29;20080;-80
2022/01/04 05:29:46;;;;;;;14.55;10.57;;;;;;;8.12;100.00;99720.19;10086716;29;20064;-80
2022/01/04 05:34:47;;;;;;;16.02;11.77;;;;;;;8.13;100.00;99721.84;10103201;29;20033;-80
2022/01/04 05:39:47;;;;;;;14.10;9.95;;;;;;;8.14;100.00;99705.47;10086429;29;20520;-80
2022/01/04 05:44:48;;;;;;;18.52;10.88;;;;;;;8.18;100.00;99707.75;10053270;29;20045;-80
2022/01/04 05:49:48;;;;;;;16.00;11.32;;;;;;;8.14;100.00;99710.84;10102239;29;20064;-81
2022/01/04 05:54:49;;;;;;;15.00;10.55;;;;;;;8.25;100.00;99706.66;10101868;29;20049;-80
2022/01/04 05:59:50;;;;;;;20.10;12.20;;;;;;;8.16;100.00;99687.19;10085284;29;20053;-80
2022/01/04 06:04:52;;;;;;;18.38;11.23;;;;;;;8.18;100.00;99691.56;10101880;29;20052;-79
2022/01/04 06:09:54;;;;;;;21.10;12.63;;;;;;;8.19;100.00;99685.13;10085372;29;20032;-79
2022/01/04 06:14:57;;;;;;;17.50;12.55;;;;;;;8.11;100.00;99675.41;10100775;29;20060;-79
2022/01/04 06:19:58;;;;;;;17.98;12.60;;;;;;;8.16;100.00;99686.34;10100918;29;20096;-78
2022/01/04 06:24:58;;;;;;;28.67;15.18;;;;;;;8.14;100.00;99673.09;10084820;29;20454;-80
2022/01/04 06:29:59;;;;;;;21.52;14.68;;;;;;;8.12;100.00;99660.88;10085192;29;20041;-80
2022/01/04 06:34:59;;;;;;;24.70;14.90;;;;;;;8.16;100.00;99643.22;10088991;29;20041;-80
2022/01/04 06:40:00;;;;;;;19.20;14.50;;;;;;;8.12;100.00;99637.44;10107364;29;20073;-79
2022/01/04 06:45:00;;;;;;;19.58;14.30;;;;;;;8.12;100.00;99640.13;10100050;29;20504;-79
2022/01/04 06:50:01;;;;;;;15.68;12.23;;;;;;;8.06;100.00;99643.66;10100652;29;20099;-79
2022/01/04 06:55:02;;;;;;;16.17;11.65;;;;;;;8.13;100.00;99641.75;10100248;29;20076;-80
2022/01/04 07:00:04;;;;;;;16.05;14.02;;;;;;;8.15;100.00;99637.00;10100408;29;20068;-79
2022/01/04 07:05:04;;;;;;;18.73;11.20;;;;;;;8.12;100.00;99629.34;10100003;29;20071;-80
2022/01/04 07:10:05;;;;;;;18.45;13.52;;;;;;;8.07;100.00;99615.69;10083663;29;20071;-80
2022/01/04 07:15:06;;;;;;;11.90;10.65;;;;;;;8.05;100.00;99616.94;10098755;29;20048;-81
2022/01/04 07:20:07;;;;;;;16.33;11.30;;;;;;;7.98;100.00;99619.66;10099172;29;20492;-81
2022/01/04 07:25:08;;;;;;;19.15;13.50;;;;;;;7.96;100.00;99612.81;10098892;29;20068;-84
2022/01/04 07:30:09;;;;;;;14.32;11.55;;;;;;;7.92;100.00;99598.94;10097324;29;20039;-82
2022/01/04 07:35:10;;;;;;;18.55;13.20;;;;;;;7.93;100.00;99627.53;10099083;29;20051;-84
2022/01/04 07:40:10;;;;;;;25.30;14.50;;;;;;;8.05;100.00;99631.22;10099372;29;20041;-86
2022/01/04 07:45:11;;;;;;;26.45;13.02;;;;;;;8.13;100.00;99622.06;10099169;29;20489;-86
2022/01/04 07:50:11;;;;;;;26.15;14.43;;;;;;;8.14;100.00;99631.84;10098724;29;20056;-85
2022/01/04 07:55:12;;;;;;;19.13;14.65;;;;;;;8.08;100.00;99628.13;10083929;29;20124;-87
2022/01/04 08:00:13;;;;;;;16.98;8.65;;;;;;;8.00;100.00;99631.03;10100388;29;20041;-87
2022/01/04 08:05:13;;;;;;;15.25;10.23;;;;;;;7.99;100.00;99631.25;10069031;29;20029;-85
2022/01/04 08:10:14;;;;;;;23.58;10.45;;;;;;;7.99;100.00;99632.06;10083132;29;20413;-85
2022/01/04 08:15:14;;;;;;;17.27;8.68;;;;;;;7.99;100.00;99633.94;10099729;29;20045;-87
2022/01/04 08:20:17;;;;;;;16.02;9.65;;;;;;;7.93;100.00;99649.09;10083551;29;20048;-87
2022/01/04 08:25:17;;;;;;;10.48;8.82;;;;;;;7.90;100.00;99657.59;10098928;29;20037;-87
2022/01/04 08:30:17;;;;;;;12.63;8.68;;;;;;;8.01;100.00;99651.56;10082099;29;20481;-88
2022/01/04 08:35:18;;;;;;;17.35;7.63;;;;;;;8.06;100.00;99669.81;10082942;29;20045;-88
2022/01/04 08:40:18;;;;;;;11.48;5.50;;;;;;;8.01;100.00;99677.69;10104172;29;20233;-89
2022/01/04 08:45:21;;;;;;;20.08;5.28;;;;;;;8.01;100.00;99683.94;10092356;29;20041;-88
2022/01/04 08:50:21;;;;;;;18.90;6.32;;;;;;;8.02;100.00;99676.66;10107159;29;20064;-87
2022/01/04 08:55:25;;;;;;;18.52;7.65;;;;;;;8.06;100.00;99683.28;10122292;29;20123;-87
2022/01/04 09:00:25;;;;;;;9.15;4.45;;;;;;;8.14;100.00;99673.09;10114096;29;20041;-87
2022/01/04 09:05:26;;;;;;;9.82;4.80;;;;;;;8.16;100.00;99660.22;10104657;29;20089;-87
2022/01/04 09:10:27;;;;;;;22.17;5.97;;;;;;;8.26;100.00;99658.94;10104766;29;20495;-87
2022/01/04 09:20:37;;;;;;;28.13;6.72;;;;;;;8.42;100.00;99669.28;10088563;29;20433;-87
2022/01/04 09:25:37;;;;;;;14.57;5.00;;;;;;;8.44;100.00;99664.53;10107026;29;20040;-88
2022/01/04 09:30:39;;;;;;;21.63;5.15;;;;;;;8.46;100.00;99670.53;10072385;29;20552;-87
2022/01/04 09:35:41;;;;;;;20.92;6.50;;;;;;;8.50;100.00;99663.66;10087875;29;20059;-87
2022/01/04 09:40:41;;;;;;;22.55;6.40;;;;;;;8.53;100.00;99676.72;10103784;29;20045;-86
2022/01/04 09:45:42;;;;;;;13.43;5.35;;;;;;;8.52;100.00;99683.19;10102274;29;20040;-85
2022/01/04 09:50:42;;;;;;;11.88;4.80;;;;;;;8.51;100.00;99684.19;10086044;29;20072;-86
2022/01/04 09:55:43;;;;;;;18.50;5.55;;;;;;;8.44;100.00;99680.72;10101866;29;20037;-87
2022/01/04 10:00:43;;;;;;;21.67;5.25;;;;;;;8.41;100.00;99681.13;10103818;29;20049;-88
2022/01/04 10:05:43;;;;;;;28.10;6.65;;;;;;;8.44;100.00;99688.81;10090306;29;20041;-86
2022/01/04 10:10:45;;;;;;;17.23;6.45;;;;;;;8.44;100.00;99686.09;10088711;29;20065;-86
2022/01/04 10:15:50;;;;;;;27.17;4.85;;;;;;;8.41;100.00;99675.75;10086788;29;20037;-87
2022/01/04 10:20:52;;;;;;;12.45;6.25;;;;;;;8.43;100.00;99679.06;10086655;29;20068;-87
2022/01/04 10:26:00;;;;;;;14.88;6.20;;;;;;;8.42;100.00;99663.91;10104224;29;20025;-88
2022/01/04 10:31:02;;;;;;;9.95;4.10;;;;;;;8.38;100.00;99662.69;10086816;29;20108;-87
2022/01/04 10:36:11;;;;;;;11.15;5.60;;;;;;;8.38;100.00;99662.69;10086227;29;20037;-87
2022/01/04 10:41:26;;;;;;;10.27;3.67;;;;;;;8.31;100.00;99680.72;10085822;29;20037;-87
2022/01/04 10:46:38;;;;;;;7.80;2.97;;;;;;;8.23;100.00;99686.34;10103581;29;20044;-86
2022/01/04 10:51:39;;;;;;;14.85;2.35;;;;;;;7.95;100.00;99682.06;10102849;29;20068;-87
2022/01/04 10:56:39;;;;;;;12.38;3.22;;;;;;;7.87;100.00;99682.28;10086889;29;20092;-87
2022/01/04 11:01:41;;;;;;;8.10;2.72;;;;;;;7.84;100.00;99694.31;10072311;29;20045;-86
2022/01/04 11:06:42;;;;;;;6.72;2.33;;;;;;;7.88;100.00;99700.94;10085488;29;20044;-87
2022/01/04 11:11:42;;;;;;;5.60;2.03;;;;;;;7.89;100.00;99696.38;10107968;29;20041;-86
2022/01/04 11:16:42;;;;;;;9.10;2.47;;;;;;;7.91;100.00;99705.06;10107475;29;20033;-87
2022/01/04 11:21:43;;;;;;;11.32;2.67;;;;;;;7.99;100.00;99718.34;10083747;29;20045;-87
2022/01/04 11:26:47;;;;;;;22.83;2.85;;;;;;;7.98;100.00;99716.69;10100321;29;20084;-87
2022/01/04 11:31:50;;;;;;;12.50;2.35;;;;;;;7.97;100.00;99722.28;10083261;29;20041;-87
2022/01/04 11:36:51;;;;;;;7.90;2.22;;;;;;;7.98;100.00;99738.25;10100288;29;20041;-86
2022/01/04 11:41:52;;;;;;;4.97;1.98;;;;;;;7.92;100.00;99739.09;10083292;29;20043;-87
2022/01/04 11:46:58;;;;;;;10.70;2.33;;;;;;;7.87;100.00;99755.88;10068999;29;20040;-88
2022/01/04 11:51:58;;;;;;;6.00;1.83;;;;;;;7.88;100.00;99754.00;10100297;29;20064;-87
2022/01/04 11:57:09;;;;;;;2.90;2.08;;;;;;;7.79;100.00;99761.50;10067735;29;20515;-85
2022/01/04 12:02:31;;;;;;;5.07;2.38;;;;;;;7.64;100.00;99768.94;10084016;29;20041;-87
2022/01/04 12:07:41;;;;;;;1.27;1.00;;;;;;;7.54;100.00;99763.97;10103858;29;20055;-87
2022/01/04 12:13:30;;;;;;;3.88;1.70;;;;;;;7.58;100.00;99770.59;10101640;29;20069;-88
2022/01/04 12:18:34;;;;;;;7.15;2.03;;;;;;;7.39;100.00;99774.91;10076299;29;20041;-88
2022/01/04 12:23:37;;;;;;;6.35;2.45;;;;;;;7.21;100.00;99763.88;10102264;29;20484;-87
2022/01/04 12:28:59;;;;;;;9.20;2.20;;;;;;;7.34;100.00;99763.09;10099895;29;20095;-88
2022/01/04 12:34:04;;;;;;;1.10;1.08;;;;;;;7.14;100.00;99760.34;10098664;29;20063;-89
2022/01/04 12:39:09;;;;;;;8.30;2.08;;;;;;;6.88;100.00;99758.41;10099732;29;20045;-88
2022/01/04 12:44:11;;;;;;;14.70;1.83;;;;;;;6.73;100.00;99762.09;10084075;29;20052;-88
2022/01/04 12:49:16;;;;;;;6.93;1.52;;;;;;;6.66;100.00;99774.66;10084684;29;20036;-88
2022/01/04 12:54:19;;;;;;;4.18;1.48;;;;;;;6.71;100.00;99766.84;10099937;29;20508;-88
2022/01/04 12:59:27;;;;;;;2.28;1.48;;;;;;;6.65;100.00;99764.13;10102092;29;20104;-88
2022/01/04 13:04:32;;;;;;;3.83;2.30;;;;;;;6.68;100.00;99753.78;10101419;29;20521;-88
2022/01/04 13:09:32;;;;;;;5.57;1.88;;;;;;;6.70;100.00;99748.19;10084638;29;20040;-86
2022/01/04 13:14:33;;;;;;;11.05;1.88;;;;;;;6.58;100.00;99742.56;10099284;29;20033;-88
2022/01/04 13:19:39;;;;;;;2.15;1.42;;;;;;;6.58;100.00;99749.81;10081231;29;20111;-86
2022/01/04 13:24:44;;;;;;;8.60;1.48;;;;;;;6.65;100.00;99756.88;10112771;29;20458;-86
2022/01/04 13:29:52;;;;;;;6.53;2.53;;;;;;;6.64;100.00;99749.00;10105095;29;20044;-84
2022/01/04 13:34:56;;;;;;;4.95;2.17;;;;;;;6.66;100.00;99755.00;10105697;29;20393;-86
2022/01/04 13:39:57;;;;;;;14.15;2.35;;;;;;;6.70;100.00;99757.13;10086740;29;20409;-86
2022/01/04 13:44:58;;;;;;;2.42;1.67;;;;;;;6.68;100.00;99769.91;10086312;29;20037;-84
2022/01/04 13:50:14;;;;;;;4.70;1.40;;;;;;;6.63;100.00;99772.38;10103075;29;20037;-82
2022/01/04 13:55:14;;;;;;;3.38;2.40;;;;;;;6.67;100.00;99781.72;10103131;29;20104;-84
2022/01/04 14:00:33;;;;;;;4.60;1.65;;;;;;;6.61;100.00;99779.00;10102218;29;20139;-84
2022/01/04 14:05:35;;;;;;;1.85;1.38;;;;;;;6.66;100.00;99784.59;10085364;29;20457;-84
2022/01/04 14:10:53;;;;;;;4.18;2.03;;;;;;;6.68;100.00;99787.94;10101099;29;20113;-83
2022/01/04 14:16:13;;;;;;;11.82;3.10;;;;;;;6.63;100.00;99796.56;10084877;29;20036;-84
2022/01/04 14:21:13;;;;;;;4.22;1.65;;;;;;;6.53;100.00;99810.38;10101162;29;20037;-82
2022/01/04 14:26:14;;;;;;;6.18;2.60;;;;;;;6.46;100.00;99809.53;10084319;29;20048;-83
2022/01/04 14:31:17;;;;;;;7.43;2.70;;;;;;;6.45;100.00;99813.25;10101592;29;20052;-83
2022/01/04 14:36:18;;;;;;;5.25;1.85;;;;;;;6.44;100.00;99805.38;10083720;29;20123;-83
2022/01/04 14:41:18;;;;;;;8.30;2.22;;;;;;;6.45;100.00;99823.19;10100347;29;20041;-83
2022/01/04 14:46:19;;;;;;;6.15;1.88;;;;;;;6.32;100.00;99823.94;10099762;29;20048;-83
2022/01/04 14:51:19;;;;;;;7.75;2.20;;;;;;;6.22;100.00;99836.84;10100436;29;20064;-83
2022/01/04 14:56:19;;;;;;;8.52;2.67;;;;;;;6.19;100.00;99838.09;10099483;29;20037;-82
2022/01/04 15:01:20;;;;;;;5.07;1.92;;;;;;;6.20;100.00;99845.13;10082413;29;20481;-82
2022/01/04 15:06:20;;;;;;;2.47;2.28;;;;;;;6.17;100.00;99852.75;10099484;29;20115;-83
2022/01/04 15:11:21;;;;;;;4.72;2.45;;;;;;;6.20;100.00;99857.75;10099432;29;20063;-83
2022/01/04 15:16:21;;;;;;;9.68;1.95;;;;;;;6.17;100.00;99855.44;10099739;29;20041;-84
2022/01/04 15:21:22;;;;;;;6.75;2.50;;;;;;;6.12;100.00;99861.38;10083811;29;20085;-82
2022/01/04 15:26:22;;;;;;;6.03;1.17;;;;;;;6.12;100.00;99869.44;10100035;29;20473;-83
2022/01/04 15:31:22;;;;;;;10.05;2.55;;;;;;;6.06;100.00;99889.03;10098427;29;20068;-83
2022/01/04 15:36:23;;;;;;;5.90;2.65;;;;;;;5.93;100.00;99896.97;10100985;29;20143;-83
2022/01/04 15:41:24;;;;;;;14.10;2.72;;;;;;;5.86;100.00;99899.56;10112998;29;20056;-82
2022/01/04 15:46:25;;;;;;;10.55;2.30;;;;;;;5.79;100.00;99902.19;10122104;29;20044;-83
2022/01/04 15:51:26;;;;;;;4.47;1.52;;;;;;;5.78;100.00;99913.16;10105770;29;20068;-80
2022/01/04 15:56:26;;;;;;;3.03;1.77;;;;;;;5.79;100.00;99912.94;10098438;29;20120;-82
2022/01/04 16:01:27;;;;;;;14.07;3.55;;;;;;;5.82;100.00;99911.72;10098020;29;20037;-81
2022/01/04 16:06:29;;;;;;;7.07;2.63;;;;;;;5.81;100.00;99924.34;10098326;29;20477;-82
2022/01/04 16:11:29;;;;;;;8.82;2.00;;;;;;;5.71;100.00;99928.34;10097680;29;20132;-82
2022/01/04 16:16:37;;;;;;;7.60;3.10;;;;;;;5.64;100.00;99946.22;10097413;29;20513;-81
2022/01/04 16:21:37;;;;;;;10.32;2.30;;;;;;;5.54;100.00;99954.59;10098328;29;20033;-81
2022/01/04 16:26:41;;;;;;;3.63;1.77;;;;;;;5.39;100.00;99948.41;10080589;29;20477;-81
2022/01/04 16:31:42;;;;;;;5.28;1.80;;;;;;;5.31;100.00;99938.63;10097001;29;20496;-81
2022/01/04 16:36:42;;;;;;;12.00;2.50;;;;;;;5.27;100.00;99946.22;10080098;29;20076;-81
2022/01/04 16:41:43;;;;;;;2.00;1.88;;;;;;;5.25;100.00;99947.41;10097212;29;20061;-81
2022/01/04 16:46:45;;;;;;;3.20;1.65;;;;;;;5.18;100.00;99941.97;10079901;29;20061;-81
2022/01/04 16:51:46;;;;;;;12.15;3.05;;;;;;;5.14;100.00;99935.31;10079927;29;20053;-80
2022/01/04 16:56:46;;;;;;;12.48;2.58;;;;;;;5.15;100.00;99953.06;10080282;29;20128;-81
2022/01/04 17:01:47;;;;;;;3.38;2.42;;;;;;;5.13;100.00;99947.88;10081512;29;20045;-82
2022/01/04 17:06:47;;;;;;;13.93;3.60;;;;;;;5.16;100.00;99960.09;10086999;29;20477;-81
2022/01/04 17:12:07;;;;;;;11.43;3.33;;;;;;;5.23;100.00;99966.41;10103637;29;20129;-81
2022/01/04 17:17:08;;;;;;;3.13;2.80;;;;;;;5.19;100.00;99957.03;10103719;29;20049;-82
2022/01/04 17:22:09;;;;;;;3.78;2.88;;;;;;;5.14;100.00;99959.47;10103865;29;20113;-82
2022/01/04 17:27:09;;;;;;;6.68;3.45;;;;;;;5.04;100.00;99958.88;10103327;29;20089;-83
2022/01/04 17:32:09;;;;;;;9.52;4.00;;;;;;;4.92;100.00;99957.69;10103422;29;20045;-81
2022/01/04 17:37:10;;;;;;;6.30;2.58;;;;;;;4.90;100.00;99953.31;10103465;29;20466;-82
2022/01/04 17:42:10;;;;;;;4.32;1.92;;;;;;;4.95;100.00;99957.31;10103064;29;20037;-82
2022/01/04 17:47:11;;;;;;;7.53;3.78;;;;;;;4.97;100.00;99957.97;10103033;29;20128;-82
2022/01/04 17:52:11;;;;;;;8.50;4.78;;;;;;;4.96;100.00;99957.13;10088241;29;20497;-82
2022/01/04 17:57:11;;;;;;;16.52;4.78;;;;;;;4.96;100.00;99961.66;10097652;29;20056;-82
2022/01/04 18:02:12;;;;;;;9.40;2.47;;;;;;;4.97;100.00;99963.31;10118731;29;20397;-81
2022/01/04 18:07:12;;;;;;;2.13;1.88;;;;;;;4.93;100.00;99962.84;10107969;29;20041;-82
2022/01/04 18:12:13;;;;;;;6.70;2.03;;;;;;;4.83;100.00;99946.22;10087421;29;20032;-80
2022/01/04 18:17:14;;;;;;;6.35;3.50;;;;;;;4.82;100.00;99945.38;10103074;29;20033;-81
2022/01/04 18:22:15;;;;;;;9.95;2.30;;;;;;;4.78;100.00;99948.59;10103409;29;20041;-82
2022/01/04 18:27:15;;;;;;;6.72;1.95;;;;;;;4.80;100.00;99957.31;10085824;29;20033;-81
2022/01/04 18:32:16;;;;;;;16.13;2.90;;;;;;;4.84;100.00;99972.00;10072057;29;20041;-81
2022/01/04 18:37:16;;;;;;;8.05;2.30;;;;;;;4.89;100.00;99978.50;10087316;29;20124;-81
2022/01/04 18:42:16;;;;;;;9.68;2.90;;;;;;;4.94;100.00;99983.28;10085034;29;20044;-81
2022/01/04 18:47:17;;;;;;;13.88;2.40;;;;;;;4.84;100.00;99999.66;10083876;29;20132;-81
2022/01/04 18:52:17;;;;;;;9.13;1.77;;;;;;;4.78;100.00;99997.69;10101388;29;20097;-81
2022/01/04 18:57:18;;;;;;;7.18;3.08;;;;;;;4.70;100.00;99995.13;10101962;29;20041;-81
2022/01/04 19:02:18;;;;;;;7.78;2.67;;;;;;;4.64;100.00;99990.47;10101778;29;20033;-81
2022/01/04 19:07:19;;;;;;;4.43;2.25;;;;;;;4.62;100.00;99998.69;10101567;29;20076;-80
2022/01/04 19:12:19;;;;;;;9.90;2.05;;;;;;;4.63;100.00;99997.69;10100585;29;20405;-80
2022/01/04 19:17:19;;;;;;;15.32;3.10;;;;;;;4.69;100.00;99997.97;10100288;29;20048;-81
2022/01/04 19:22:20;;;;;;;10.23;2.30;;;;;;;4.72;100.00;99987.69;10084351;29;20041;-80
2022/01/04 19:27:20;;;;;;;3.05;2.05;;;;;;;4.75;100.00;99992.69;10083401;29;20485;-81
2022/01/04 19:37:30;;;;;;;12.55;3.38;;;;;;;4.86;100.00;100007.53;10100674;29;20136;-81
2022/01/04 19:42:30;;;;;;;8.32;3.00;;;;;;;4.88;100.00;100003.66;10082269;29;21346;-79
2022/01/04 19:47:31;;;;;;;4.30;3.00;;;;;;;4.90;100.00;100015.03;10098808;29;20044;-80
2022/01/04 19:52:31;;;;;;;5.38;2.20;;;;;;;4.93;100.00;100016.50;10098098;29;20084;-80
2022/01/04 19:57:32;;;;;;;8.88;3.42;;;;;;;4.94;100.00;100011.97;10081341;29;20109;-80
2022/01/04 20:02:32;;;;;;;8.30;3.38;;;;;;;4.99;100.00;100010.41;10082211;29;20037;-80
2022/01/04 20:07:34;;;;;;;14.82;5.38;;;;;;;4.99;100.00;100006.91;10099576;29;20045;-80
2022/01/04 20:12:34;;;;;;;8.95;2.97;;;;;;;4.97;100.00;100012.44;10110554;29;20049;-82
2022/01/04 20:17:34;;;;;;;13.93;3.55;;;;;;;4.94;100.00;100017.34;10109835;29;20040;-81
2022/01/04 20:22:35;;;;;;;8.73;3.10;;;;;;;4.89;100.00;100016.06;10086736;29;20034;-79
2022/01/04 20:27:35;;;;;;;6.60;3.17;;;;;;;4.83;100.00;100026.69;10085257;29;20029;-81
2022/01/04 20:32:36;;;;;;;18.67;4.57;;;;;;;4.79;100.00;100018.16;10119119;29;20111;-80
2022/01/04 20:37:37;;;;;;;8.70;2.80;;;;;;;4.64;99.26;100028.00;10141675;29;20044;-80
2022/01/04 20:42:37;;;;;;;7.78;3.40;;;;;;;4.54;98.35;100030.13;10126927;29;20374;-79
2022/01/04 20:47:38;;;;;;;8.35;3.78;;;;;;;4.50;99.19;100037.69;10143298;29;20047;-78
2022/01/04 20:52:39;;;;;;;11.23;2.67;;;;;;;4.36;97.74;100041.13;10143491;29;20056;-80
2022/01/04 20:57:40;;;;;;;12.18;3.25;;;;;;;4.21;97.54;100041.03;10143827;29;20564;-79
2022/01/04 21:02:41;;;;;;;12.75;3.17;;;;;;;4.05;96.78;100050.03;10126607;29;20041;-80
2022/01/04 21:07:42;;;;;;;9.00;2.10;;;;;;;4.01;96.87;100046.03;10142968;29;20052;-80
2022/01/04 21:12:42;;;;;;;4.93;3.00;;;;;;;3.87;96.70;100050.28;10143513;29;20040;-80
2022/01/04 21:17:43;;;;;;;15.57;3.83;;;;;;;3.74;96.57;100058.06;10132702;29;20037;-80
2022/01/04 21:22:45;;;;;;;9.77;2.90;;;;;;;3.64;96.52;100068.97;10107120;29;20051;-79
2022/01/04 21:27:45;;;;;;;5.68;2.95;;;;;;;3.66;97.70;100072.28;10107063;29;20059;-78
2022/01/04 21:32:46;;;;;;;11.65;3.42;;;;;;;3.97;100.00;100090.25;10104345;29;20037;-80
2022/01/04 21:37:46;;;;;;;4.38;2.58;;;;;;;3.95;100.00;100076.19;10087198;29;20543;-79
2022/01/04 21:42:47;;;;;;;3.47;2.33;;;;;;;3.83;99.36;100085.63;10102584;29;20029;-78
2022/01/04 21:47:47;;;;;;;2.47;1.98;;;;;;;3.81;99.37;100085.81;10101073;29;20476;-81
2022/01/04 21:52:47;;;;;;;7.15;3.33;;;;;;;3.75;98.82;100081.13;10102314;29;20056;-81
2022/01/04 21:57:48;;;;;;;14.43;4.93;;;;;;;3.78;97.70;100082.63;10102211;29;20045;-80
2022/01/04 22:02:48;;;;;;;10.48;3.53;;;;;;;3.67;97.26;100095.41;10102118;29;20033;-81
2022/01/04 22:07:49;;;;;;;12.75;4.22;;;;;;;3.55;96.74;100102.13;10100812;29;20037;-80
2022/01/04 22:12:49;;;;;;;9.07;2.97;;;;;;;3.53;96.64;100100.63;10084946;29;20044;-80
2022/01/04 22:17:50;;;;;;;5.40;3.40;;;;;;;3.61;97.95;100103.28;10101321;29;20412;-79
2022/01/04 22:22:50;;;;;;;6.50;3.70;;;;;;;3.50;96.40;100094.59;10102474;29;20072;-80
2022/01/04 22:27:53;;;;;;;4.90;3.67;;;;;;;3.42;96.21;100107.19;10085760;29;20496;-79
2022/01/04 22:32:54;;;;;;;3.88;2.95;;;;;;;3.52;97.82;100128.41;10115068;29;20036;-80
2022/01/04 22:37:54;;;;;;;12.13;5.03;;;;;;;3.65;98.92;100124.19;10113033;29;20048;-80
2022/01/04 22:42:54;;;;;;;13.98;4.30;;;;;;;3.88;100.00;100123.44;10101810;29;20037;-80
2022/01/04 22:47:55;;;;;;;15.02;4.90;;;;;;;3.95;100.00;100127.91;10101535;29;20446;-80
2022/01/04 22:52:55;;;;;;;12.65;3.90;;;;;;;3.78;97.73;100130.84;10102580;29;20064;-79
2022/01/04 22:57:56;;;;;;;13.02;3.67;;;;;;;3.62;97.37;100134.41;10102107;29;20041;-80
2022/01/04 23:02:56;;;;;;;17.25;3.83;;;;;;;3.44;96.49;100138.09;10100819;29;20066;-80
2022/01/04 23:07:56;;;;;;;15.40;3.17;;;;;;;3.33;96.46;100145.66;10101956;29;20041;-79
2022/01/04 23:12:57;;;;;;;21.50;4.30;;;;;;;3.16;96.33;100147.50;10101330;29;20039;-80
2022/01/04 23:17:57;;;;;;;18.30;3.78;;;;;;;3.10;95.79;100148.19;10100323;29;20107;-79